createdAt,value
2022-11-17T00:01:47.483Z,61.0
2022-11-17T00:04:28.117Z,62.0
2022-11-17T00:09:28.822Z,62.0
2022-11-17T00:11:59.433Z,62.0
2022-11-17T00:14:30.009Z,62.0
2022-11-17T00:17:00.606Z,62.0
2022-11-17T00:19:41.199Z,62.0
2022-11-17T00:22:11.801Z,62.0
2022-11-17T00:24:42.398Z,62.0
2022-11-17T00:27:23.002Z,62.0
2022-11-17T00:29:53.608Z,62.0
2022-11-17T00:32:34.231Z,61.0
2022-11-17T00:35:04.804Z,62.0
2022-11-17T00:37:35.386Z,61.0
2022-11-17T00:40:10.894Z,61.0
2022-11-17T00:42:31.501Z,62.0
2022-11-17T00:45:02.110Z,62.0
2022-11-17T00:50:12.892Z,62.0
2022-11-17T00:52:43.479Z,62.0
2022-11-17T00:55:14.220Z,62.0
2022-11-17T00:57:44.973Z,62.0
2022-11-17T01:00:15.571Z,62.0
2022-11-17T01:02:56.192Z,62.0
2022-11-17T01:05:29.057Z,62.0
2022-11-17T01:08:02.369Z,62.0
2022-11-17T01:10:32.933Z,62.0
2022-11-17T01:13:03.503Z,62.0
2022-11-17T01:15:34.112Z,62.0
2022-11-17T01:18:14.720Z,62.0
2022-11-17T01:20:45.395Z,62.0
2022-11-17T01:23:16.005Z,62.0
2022-11-17T01:25:46.608Z,62.0
2022-11-17T01:30:47.399Z,62.0
2022-11-17T01:33:28.020Z,62.0
2022-11-17T01:35:58.773Z,62.0
2022-11-17T01:38:29.378Z,62.0
2022-11-17T01:40:59.986Z,62.0
2022-11-17T01:43:30.582Z,62.0
2022-11-17T01:46:11.194Z,62.0
2022-11-17T01:48:41.815Z,62.0
2022-11-17T01:51:12.426Z,62.0
2022-11-17T01:53:43.440Z,62.0
2022-11-17T01:56:14.050Z,62.0
2022-11-17T01:58:44.621Z,62.0
2022-11-17T02:01:25.350Z,62.0
2022-11-17T02:03:56.075Z,62.0
2022-11-17T02:06:26.825Z,62.0
2022-11-17T02:11:27.567Z,62.0
2022-11-17T02:13:58.149Z,62.0
2022-11-17T02:16:38.786Z,62.0
2022-11-17T02:19:09.404Z,62.0
2022-11-17T02:21:40.010Z,62.0
2022-11-17T02:24:10.585Z,62.0
2022-11-17T02:26:41.187Z,62.0
2022-11-17T02:29:11.789Z,62.0
2022-11-17T02:31:52.406Z,62.0
2022-11-17T02:34:22.994Z,62.0
2022-11-17T02:36:53.593Z,62.0
2022-11-17T02:39:24.174Z,62.0
2022-11-17T02:41:54.783Z,62.0
2022-11-17T02:44:35.396Z,62.0
2022-11-17T02:47:15.980Z,62.0
2022-11-17T02:52:16.743Z,62.0
2022-11-17T02:54:47.358Z,62.0
2022-11-17T02:57:17.953Z,62.0
2022-11-17T02:59:48.544Z,62.0
2022-11-17T03:02:29.148Z,62.0
2022-11-17T03:04:59.740Z,62.0
2022-11-17T03:07:30.463Z,62.0
2022-11-17T03:10:01.080Z,62.0
2022-11-17T03:12:31.688Z,62.0
2022-11-17T03:15:02.300Z,62.0
2022-11-17T03:17:42.940Z,62.0
2022-11-17T03:20:13.548Z,62.0
2022-11-17T03:22:44.138Z,62.0
2022-11-17T03:25:14.734Z,62.0
2022-11-17T03:27:45.360Z,62.0
2022-11-17T03:32:56.128Z,62.0
2022-11-17T03:35:26.735Z,62.0
2022-11-17T03:37:57.363Z,62.0
2022-11-17T03:40:27.994Z,62.0
2022-11-17T03:42:58.608Z,62.0
2022-11-17T03:45:39.225Z,62.0
2022-11-17T03:48:09.844Z,62.0
2022-11-17T03:50:40.445Z,62.0
2022-11-17T03:53:11.063Z,62.0
2022-11-17T03:55:41.672Z,62.0
2022-11-17T03:58:12.254Z,62.0
2022-11-17T04:00:52.860Z,62.0
2022-11-17T04:03:23.478Z,62.0
2022-11-17T04:05:54.712Z,62.0
2022-11-17T04:08:25.319Z,62.0
2022-11-17T04:13:36.260Z,62.0
2022-11-17T04:16:07.026Z,62.0
2022-11-17T04:18:37.781Z,62.0
2022-11-17T04:21:08.407Z,62.0
2022-11-17T04:23:39.177Z,62.0
2022-11-17T04:26:09.792Z,62.0
2022-11-17T04:28:50.412Z,62.0
2022-11-17T04:31:21.035Z,62.0
2022-11-17T04:33:51.649Z,62.0
2022-11-17T04:36:22.255Z,62.0
2022-11-17T04:38:52.862Z,62.0
2022-11-17T04:41:23.471Z,62.0
2022-11-17T04:44:04.089Z,62.0
2022-11-17T04:46:34.689Z,62.0
2022-11-17T04:49:05.302Z,62.0
2022-11-17T04:54:06.084Z,62.0
2022-11-17T04:56:36.693Z,62.0
2022-11-17T04:59:17.323Z,62.0
2022-11-17T05:01:48.006Z,62.0
2022-11-17T05:04:23.074Z,62.0
2022-11-17T05:06:53.701Z,62.0
2022-11-17T05:09:24.416Z,62.0
2022-11-17T05:11:55.015Z,62.0
2022-11-17T05:14:35.624Z,62.0
2022-11-17T05:17:08.945Z,62.0
2022-11-17T05:19:40.167Z,62.0
2022-11-17T05:22:10.806Z,62.0
2022-11-17T05:24:41.466Z,63.0
2022-11-17T05:27:22.081Z,62.0
2022-11-17T05:29:52.697Z,62.0
2022-11-17T05:34:53.436Z,62.0
2022-11-17T05:37:24.034Z,62.0
2022-11-17T05:39:54.673Z,62.0
2022-11-17T05:42:35.311Z,62.0
2022-11-17T05:45:05.914Z,62.0
2022-11-17T05:47:36.496Z,62.0
2022-11-17T05:50:07.090Z,62.0
2022-11-17T05:52:37.705Z,62.0
2022-11-17T05:55:08.345Z,62.0
2022-11-17T05:57:48.958Z,62.0
2022-11-17T06:00:19.556Z,62.0
2022-11-17T06:02:50.145Z,62.0
2022-11-17T06:05:25.813Z,62.0
2022-11-17T06:07:56.395Z,62.0
2022-11-17T06:10:26.993Z,62.0
2022-11-17T06:15:37.747Z,62.0
2022-11-17T06:18:08.345Z,62.0
2022-11-17T06:20:38.968Z,62.0
2022-11-17T06:23:09.540Z,62.0
2022-11-17T06:25:40.144Z,62.0
2022-11-17T06:28:20.768Z,63.0
2022-11-17T06:30:51.421Z,62.0
2022-11-17T06:33:21.999Z,63.0
2022-11-17T06:35:52.712Z,63.0
2022-11-17T06:38:23.304Z,63.0
2022-11-17T06:40:53.926Z,63.0
2022-11-17T06:43:29.335Z,63.0
2022-11-17T06:45:59.939Z,63.0
2022-11-17T06:48:30.556Z,63.0
2022-11-17T06:51:01.155Z,63.0
2022-11-17T06:56:21.918Z,63.0
2022-11-17T06:58:52.509Z,63.0
2022-11-17T07:01:23.257Z,63.0
2022-11-17T07:03:53.907Z,63.0
2022-11-17T07:06:24.510Z,63.0
2022-11-17T07:08:55.123Z,63.0
2022-11-17T07:11:35.737Z,63.0
2022-11-17T07:14:06.337Z,63.0
2022-11-17T07:16:36.956Z,63.0
2022-11-17T07:19:07.596Z,63.0
2022-11-17T07:21:38.198Z,63.0
2022-11-17T07:24:08.788Z,63.0
2022-11-17T07:26:49.421Z,63.0
2022-11-17T07:29:20.027Z,63.0
2022-11-17T07:31:50.641Z,63.0
2022-11-17T07:36:51.397Z,63.0
2022-11-17T07:39:22.139Z,63.0
2022-11-17T07:42:02.861Z,63.0
2022-11-17T07:44:33.458Z,63.0
2022-11-17T07:47:04.048Z,63.0
2022-11-17T07:49:34.628Z,63.0
2022-11-17T07:52:05.320Z,63.0
2022-11-17T07:54:35.952Z,63.0
2022-11-17T07:57:16.576Z,63.0
2022-11-17T07:59:47.174Z,63.0
2022-11-17T08:02:17.779Z,63.0
2022-11-17T08:04:48.405Z,63.0
2022-11-17T08:07:19.093Z,63.0
2022-11-17T08:09:59.906Z,63.0
2022-11-17T08:12:30.513Z,63.0
2022-11-17T08:17:31.275Z,63.0
2022-11-17T08:20:01.896Z,63.0
2022-11-17T08:22:32.481Z,63.0
2022-11-17T08:25:13.090Z,62.0
2022-11-17T08:27:43.679Z,63.0
2022-11-17T08:30:14.298Z,62.0
2022-11-17T08:32:44.916Z,62.0
2022-11-17T08:35:15.516Z,62.0
2022-11-17T08:37:46.123Z,62.0
2022-11-17T08:40:26.755Z,62.0
2022-11-17T08:43:00.846Z,62.0
2022-11-17T08:45:31.603Z,62.0
2022-11-17T08:48:02.188Z,62.0
2022-11-17T08:50:32.794Z,62.0
2022-11-17T08:53:03.412Z,62.0
2022-11-17T08:58:14.201Z,62.0
2022-11-17T09:00:44.852Z,62.0
2022-11-17T09:03:16.595Z,62.0
2022-11-17T09:05:47.216Z,62.0
2022-11-17T09:08:53.432Z,62.0
2022-11-17T09:10:54.929Z,62.0
2022-11-17T09:13:28.899Z,62.0
2022-11-17T09:15:59.617Z,62.0
2022-11-17T09:18:30.224Z,62.0
2022-11-17T09:21:01.162Z,62.0
2022-11-17T09:23:41.794Z,62.0
2022-11-17T09:26:12.418Z,62.0
2022-11-17T09:28:43.413Z,62.0
2022-11-17T09:31:14.238Z,62.0
2022-11-17T09:33:44.935Z,62.0
2022-11-17T09:38:57.235Z,62.0
2022-11-17T09:41:27.853Z,62.0
2022-11-17T09:43:58.461Z,62.0
2022-11-17T09:46:29.079Z,62.0
2022-11-17T09:48:59.667Z,62.0
2022-11-17T09:51:30.284Z,62.0
2022-11-17T09:54:10.881Z,62.0
2022-11-17T09:56:41.488Z,62.0
2022-11-17T09:59:12.116Z,62.0
2022-11-17T10:01:42.737Z,62.0
2022-11-17T10:04:13.381Z,62.0
2022-11-17T10:06:54.062Z,62.0
2022-11-17T10:09:26.030Z,62.0
2022-11-17T10:11:56.813Z,62.0
2022-11-17T10:14:27.432Z,62.0
2022-11-17T10:19:28.199Z,62.0
2022-11-17T10:22:08.824Z,62.0
2022-11-17T10:24:41.337Z,62.0
2022-11-17T10:27:11.947Z,62.0
2022-11-17T10:29:42.574Z,62.0
2022-11-17T10:32:13.215Z,62.0
2022-11-17T10:34:50.480Z,62.0
2022-11-17T10:37:21.067Z,62.0
2022-11-17T10:39:51.678Z,62.0
2022-11-17T10:42:22.304Z,62.0
2022-11-17T10:44:52.930Z,62.0
2022-11-17T10:47:23.552Z,62.0
2022-11-17T10:50:04.189Z,62.0
2022-11-17T10:52:34.844Z,61.0
2022-11-17T10:55:05.462Z,61.0
2022-11-17T11:00:07.480Z,61.0
2022-11-17T11:02:38.084Z,61.0
2022-11-17T11:05:18.705Z,61.0
2022-11-17T11:07:49.565Z,61.0
2022-11-17T11:10:20.178Z,61.0
2022-11-17T11:12:50.763Z,61.0
2022-11-17T11:15:21.364Z,61.0
2022-11-17T11:17:51.968Z,61.0
2022-11-17T11:20:32.588Z,61.0
2022-11-17T11:23:03.181Z,61.0
2022-11-17T11:25:33.771Z,61.0
2022-11-17T11:28:14.374Z,61.0
2022-11-17T11:30:44.994Z,61.0
2022-11-17T11:33:15.599Z,61.0
2022-11-17T11:35:56.196Z,61.0
2022-11-17T11:40:56.954Z,61.0
2022-11-17T11:43:27.559Z,61.0
2022-11-17T11:45:58.288Z,61.0
2022-11-17T11:48:39.016Z,61.0
2022-11-17T11:51:09.618Z,61.0
2022-11-17T11:53:40.222Z,61.0
2022-11-17T11:56:10.865Z,61.0
2022-11-17T11:58:41.450Z,61.0
2022-11-17T12:01:12.045Z,61.0
2022-11-17T12:03:52.722Z,61.0
2022-11-17T12:06:23.395Z,60.0
2022-11-17T12:08:54.080Z,60.0
2022-11-17T12:11:24.682Z,60.0
2022-11-17T12:13:59.953Z,60.0
2022-11-17T12:16:20.958Z,60.0
2022-11-17T12:21:31.748Z,60.0
2022-11-17T12:24:02.326Z,61.0
2022-11-17T12:26:33.500Z,60.0
2022-11-17T12:29:04.097Z,60.0
2022-11-17T12:31:34.712Z,60.0
2022-11-17T12:34:15.355Z,60.0
2022-11-17T12:36:45.953Z,60.0
2022-11-17T12:39:16.555Z,60.0
2022-11-17T12:41:47.192Z,60.0
2022-11-17T12:44:17.808Z,60.0
2022-11-17T12:46:58.422Z,60.0
2022-11-17T12:49:39.005Z,60.0
2022-11-17T12:52:09.615Z,59.0
2022-11-17T12:54:40.225Z,59.0
2022-11-17T12:57:10.838Z,59.0
2022-11-17T13:02:21.623Z,59.0
2022-11-17T13:04:58.152Z,59.0
2022-11-17T13:07:18.855Z,59.0
2022-11-17T13:09:49.979Z,59.0
2022-11-17T13:12:20.567Z,59.0
2022-11-17T13:14:51.169Z,59.0
2022-11-17T13:17:32.079Z,59.0
2022-11-17T13:20:02.686Z,58.0
2022-11-17T13:22:36.464Z,58.0
2022-11-17T13:25:09.612Z,58.0
2022-11-17T13:27:40.234Z,58.0
2022-11-17T13:30:07.613Z,58.0
2022-11-17T13:32:48.300Z,58.0
2022-11-17T13:35:18.910Z,58.0
2022-11-17T13:37:49.504Z,58.0
2022-11-17T13:42:50.258Z,58.0
2022-11-17T13:45:30.900Z,58.0
2022-11-17T13:48:01.523Z,58.0
2022-11-17T13:50:32.113Z,57.0
2022-11-17T13:53:02.713Z,57.0
2022-11-17T13:55:33.318Z,57.0
2022-11-17T13:58:03.919Z,57.0
2022-11-17T14:00:40.943Z,57.0
2022-11-17T14:03:11.549Z,57.0
2022-11-17T14:05:42.156Z,57.0
2022-11-17T14:08:22.762Z,57.0
2022-11-17T14:10:53.371Z,56.0
2022-11-17T14:13:23.959Z,56.0
2022-11-17T14:16:04.570Z,56.0
2022-11-17T14:18:35.374Z,56.0
2022-11-17T14:23:36.125Z,56.0
2022-11-17T14:26:06.715Z,56.0
2022-11-17T14:28:37.314Z,56.0
2022-11-17T14:31:17.927Z,55.0
2022-11-17T14:33:48.534Z,55.0
2022-11-17T14:36:19.145Z,55.0
2022-11-17T14:38:49.758Z,55.0
2022-11-17T14:41:20.396Z,54.0
2022-11-17T14:43:50.996Z,54.0
2022-11-17T14:46:31.631Z,54.0
2022-11-17T14:49:02.239Z,54.0
2022-11-17T14:51:33.530Z,54.0
2022-11-17T14:54:04.162Z,55.0
2022-11-17T14:56:34.857Z,55.0
2022-11-17T14:59:05.525Z,55.0
2022-11-17T15:04:50.287Z,55.0
2022-11-17T15:06:42.047Z,55.0
2022-11-17T15:09:12.732Z,55.0
2022-11-17T15:11:49.579Z,55.0
2022-11-17T15:14:30.357Z,55.0
2022-11-17T15:17:00.941Z,56.0
2022-11-17T15:19:24.849Z,56.0
2022-11-17T15:22:05.459Z,56.0
2022-11-17T15:24:36.054Z,56.0
2022-11-17T15:27:06.671Z,56.0
2022-11-17T15:29:47.286Z,56.0
2022-11-17T15:32:17.906Z,56.0
2022-11-17T15:34:48.569Z,56.0
2022-11-17T15:37:19.147Z,56.0
2022-11-17T15:39:49.759Z,56.0
2022-11-17T15:45:00.498Z,56.0
2022-11-17T15:47:31.098Z,56.0
2022-11-17T15:50:01.682Z,57.0
2022-11-17T15:53:03.874Z,57.0
2022-11-17T15:55:04.704Z,57.0
2022-11-17T15:57:35.334Z,57.0
2022-11-17T16:00:15.939Z,57.0
2022-11-17T16:02:46.495Z,57.0
2022-11-17T16:05:09.273Z,57.0
2022-11-17T16:07:40.207Z,57.0
2022-11-17T16:10:10.961Z,57.0
2022-11-17T16:12:51.577Z,57.0
2022-11-17T16:15:22.180Z,57.0
2022-11-17T16:17:52.786Z,57.0
2022-11-17T16:20:33.515Z,57.0
2022-11-17T16:25:34.356Z,57.0
2022-11-17T16:28:14.956Z,57.0
2022-11-17T16:30:45.998Z,57.0
2022-11-17T16:33:16.607Z,57.0
2022-11-17T16:35:47.209Z,57.0
2022-11-17T16:38:17.815Z,58.0
2022-11-17T16:40:48.485Z,58.0
2022-11-17T16:43:29.090Z,58.0
2022-11-17T16:45:55.031Z,58.0
2022-11-17T16:48:25.678Z,58.0
2022-11-17T16:50:56.305Z,58.0
2022-11-17T16:53:26.906Z,58.0
2022-11-17T16:55:57.586Z,58.0
2022-11-17T16:58:38.191Z,58.0
2022-11-17T17:01:12.254Z,58.0
2022-11-17T17:06:13.216Z,58.0
2022-11-17T17:08:43.803Z,58.0
2022-11-17T17:11:14.409Z,58.0
2022-11-17T17:13:55.015Z,58.0
2022-11-17T17:16:25.613Z,58.0
2022-11-17T17:18:56.329Z,58.0
2022-11-17T17:21:26.949Z,58.0
2022-11-17T17:23:57.557Z,58.0
2022-11-17T17:26:38.151Z,58.0
2022-11-17T17:29:08.820Z,58.0
2022-11-17T17:31:39.807Z,58.0
2022-11-17T17:34:10.400Z,58.0
2022-11-17T17:36:40.993Z,58.0
2022-11-17T17:39:11.620Z,58.0
2022-11-17T17:41:52.242Z,58.0
2022-11-17T17:46:52.988Z,58.0
2022-11-17T17:49:24.056Z,58.0
2022-11-17T17:51:54.767Z,58.0
2022-11-17T17:54:30.184Z,58.0
2022-11-17T17:57:10.823Z,58.0
2022-11-17T17:59:41.415Z,58.0
2022-11-17T18:02:12.007Z,58.0
2022-11-17T18:04:42.607Z,58.0
2022-11-17T18:07:13.376Z,58.0
2022-11-17T18:09:44.045Z,58.0
2022-11-17T18:12:24.708Z,58.0
2022-11-17T18:14:55.307Z,58.0
2022-11-17T18:17:25.907Z,58.0
2022-11-17T18:19:56.512Z,58.0
2022-11-17T18:22:27.141Z,59.0
2022-11-17T18:27:37.896Z,58.0
2022-11-17T18:30:08.493Z,58.0
2022-11-17T18:32:39.087Z,58.0
2022-11-17T18:35:09.703Z,58.0
2022-11-17T18:37:40.296Z,59.0
2022-11-17T18:40:20.915Z,59.0
2022-11-17T18:42:51.543Z,58.0
2022-11-17T18:45:22.174Z,59.0
2022-11-17T18:47:52.762Z,59.0
2022-11-17T18:50:23.360Z,59.0
2022-11-17T18:52:53.952Z,59.0
2022-11-17T18:55:34.569Z,59.0
2022-11-17T18:58:05.169Z,59.0
2022-11-17T19:00:35.763Z,59.0
2022-11-17T19:03:06.383Z,59.0
2022-11-17T19:08:07.127Z,59.0
2022-11-17T19:10:47.791Z,59.0
2022-11-17T19:13:23.675Z,59.0
2022-11-17T19:15:54.287Z,59.0
2022-11-17T19:18:24.898Z,59.0
2022-11-17T19:20:55.524Z,58.0
2022-11-17T19:23:26.140Z,58.0
2022-11-17T19:26:06.779Z,58.0
2022-11-17T19:28:37.364Z,59.0
2022-11-17T19:31:07.976Z,58.0
2022-11-17T19:33:38.579Z,58.0
2022-11-17T19:36:09.173Z,58.0
2022-11-17T19:38:39.783Z,58.0
2022-11-17T19:41:20.522Z,58.0
2022-11-17T19:43:55.517Z,58.0
2022-11-17T19:48:56.270Z,58.0
2022-11-17T19:51:26.882Z,58.0
2022-11-17T19:54:07.697Z,58.0
2022-11-17T19:56:38.370Z,58.0
2022-11-17T19:59:14.160Z,58.0
2022-11-17T20:01:36.470Z,58.0
2022-11-17T20:04:07.253Z,58.0
2022-11-17T20:06:37.886Z,58.0
2022-11-17T20:09:18.759Z,58.0
2022-11-17T20:11:49.561Z,58.0
2022-11-17T20:14:20.176Z,58.0
2022-11-17T20:16:50.810Z,58.0
2022-11-17T20:19:21.452Z,58.0
2022-11-17T20:21:52.051Z,58.0
2022-11-17T20:24:32.647Z,58.0
2022-11-17T20:29:33.432Z,58.0
2022-11-17T20:32:04.047Z,58.0
2022-11-17T20:34:34.634Z,58.0
2022-11-17T20:37:05.232Z,58.0
2022-11-17T20:39:45.852Z,58.0
2022-11-17T20:42:16.460Z,58.0
2022-11-17T20:44:47.073Z,58.0
2022-11-17T20:47:17.689Z,58.0
2022-11-17T20:49:48.303Z,58.0
2022-11-17T20:52:23.522Z,58.0
2022-11-17T20:55:04.152Z,58.0
2022-11-17T20:57:34.778Z,58.0
2022-11-17T21:00:05.382Z,58.0
2022-11-17T21:02:35.973Z,58.0
2022-11-17T21:05:06.585Z,58.0
2022-11-17T21:10:17.780Z,58.0
2022-11-17T21:12:48.360Z,58.0
2022-11-17T21:15:18.948Z,58.0
2022-11-17T21:17:49.670Z,58.0
2022-11-17T21:20:20.348Z,58.0
2022-11-17T21:23:00.953Z,58.0
2022-11-17T21:25:31.546Z,58.0
2022-11-17T21:28:02.168Z,58.0
2022-11-17T21:30:32.761Z,58.0
2022-11-17T21:33:03.373Z,58.0
2022-11-17T21:35:34.032Z,58.0
2022-11-17T21:38:14.634Z,58.0
2022-11-17T21:40:45.224Z,58.0
2022-11-17T21:43:15.835Z,58.0
2022-11-17T21:45:46.461Z,58.0
2022-11-17T21:50:47.225Z,58.0
2022-11-17T21:53:27.782Z,57.0
2022-11-17T21:55:58.412Z,57.0
2022-11-17T21:58:29.052Z,57.0
2022-11-17T22:00:59.737Z,57.0
2022-11-17T22:03:30.403Z,57.0
2022-11-17T22:06:12.719Z,57.0
2022-11-17T22:08:43.336Z,57.0
2022-11-17T22:11:13.948Z,57.0
2022-11-17T22:13:44.558Z,57.0
2022-11-17T22:16:15.162Z,57.0
2022-11-17T22:18:45.746Z,57.0
2022-11-17T22:21:26.374Z,57.0
2022-11-17T22:23:57.003Z,57.0
2022-11-17T22:26:27.608Z,57.0
2022-11-17T22:31:28.365Z,57.0
2022-11-17T22:33:58.975Z,57.0
2022-11-17T22:36:39.613Z,57.0
2022-11-17T22:39:10.198Z,57.0
2022-11-17T22:41:40.947Z,57.0
2022-11-17T22:44:11.562Z,57.0
2022-11-17T22:46:42.168Z,57.0
2022-11-17T22:49:12.751Z,57.0
2022-11-17T22:51:53.364Z,57.0
2022-11-17T22:54:23.953Z,57.0
2022-11-17T22:57:04.711Z,57.0
2022-11-17T22:59:35.307Z,57.0
2022-11-17T23:02:05.919Z,57.0
2022-11-17T23:04:36.516Z,57.0
2022-11-17T23:07:17.199Z,57.0
2022-11-17T23:12:18.191Z,57.0
2022-11-17T23:17:18.932Z,57.0
2022-11-17T23:19:49.529Z,57.0
2022-11-17T23:22:30.126Z,57.0
2022-11-17T23:25:00.738Z,57.0
2022-11-17T23:27:31.321Z,57.0
2022-11-17T23:30:01.953Z,57.0
2022-11-17T23:32:32.554Z,57.0
2022-11-17T23:37:43.296Z,57.0
2022-11-17T23:40:13.902Z,57.0
2022-11-17T23:42:50.243Z,57.0
2022-11-17T23:45:10.844Z,57.0
2022-11-17T23:47:41.460Z,57.0
2022-11-17T23:52:52.218Z,57.0
2022-11-17T23:55:22.806Z,57.0
2022-11-17T23:58:03.415Z,57.0
